createdAt,value
2023-01-10T00:01:42.455Z,5.49
2023-01-10T00:04:10.339Z,5.43
2023-01-10T00:06:38.200Z,5.42
2023-01-10T00:09:06.780Z,5.46
2023-01-10T00:11:53.244Z,5.36
2023-01-10T00:14:22.015Z,5.31
2023-01-10T00:16:50.038Z,5.24
2023-01-10T00:19:17.873Z,5.37
2023-01-10T00:21:45.696Z,5.41
2023-01-10T00:24:19.382Z,5.32
2023-01-10T00:26:51.120Z,5.35
2023-01-10T00:29:20.839Z,5.37
2023-01-10T00:31:48.715Z,5.30
2023-01-10T00:34:16.581Z,5.26
2023-01-10T00:36:45.684Z,5.23
2023-01-10T00:39:14.525Z,5.25
2023-01-10T00:42:01.113Z,5.25
2023-01-10T00:44:28.954Z,5.45
2023-01-10T00:46:57.078Z,5.24
2023-01-10T00:49:24.959Z,5.22
2023-01-10T00:51:53.143Z,5.16
2023-01-10T00:54:21.173Z,5.12
2023-01-10T00:56:49.010Z,5.13
2023-01-10T00:59:16.881Z,5.23
2023-01-10T01:01:44.969Z,5.16
2023-01-10T01:04:12.919Z,5.04
2023-01-10T01:06:41.016Z,5.15
2023-01-10T01:09:09.208Z,5.24
2023-01-10T01:11:37.031Z,5.06
2023-01-10T01:14:05.015Z,5.11
2023-01-10T01:16:32.837Z,5.05
2023-01-10T01:19:01.057Z,5.07
2023-01-10T01:21:28.866Z,5.17
2023-01-10T01:23:57.040Z,5.00
2023-01-10T01:26:25.467Z,5.06
2023-01-10T01:28:53.290Z,5.10
2023-01-10T01:31:21.269Z,5.17
2023-01-10T01:33:49.333Z,5.04
2023-01-10T01:36:17.420Z,5.23
2023-01-10T01:38:45.249Z,5.19
2023-01-10T01:41:31.736Z,5.03
2023-01-10T01:44:05.719Z,5.14
2023-01-10T01:46:38.296Z,5.17
2023-01-10T01:49:14.568Z,5.15
2023-01-10T01:51:46.053Z,4.92
2023-01-10T01:54:15.153Z,5.08
2023-01-10T01:56:55.042Z,5.20
2023-01-10T01:59:33.193Z,5.17
2023-01-10T02:02:07.900Z,5.03
2023-01-10T02:05:05.634Z,5.06
2023-01-10T02:07:41.042Z,5.05
2023-01-10T02:10:30.740Z,4.98
2023-01-10T02:13:04.021Z,4.99
2023-01-10T02:15:31.914Z,5.11
2023-01-10T02:18:03.082Z,5.06
2023-01-10T02:20:47.112Z,5.01
2023-01-10T02:23:52.720Z,4.94
2023-01-10T02:26:46.317Z,4.99
2023-01-10T02:29:26.723Z,5.05
2023-01-10T02:32:23.502Z,4.96
2023-01-10T02:35:20.068Z,5.06
2023-01-10T02:38:05.851Z,4.96
2023-01-10T02:40:45.931Z,4.87
2023-01-10T02:43:26.790Z,4.89
2023-01-10T02:46:05.080Z,4.97
2023-01-10T02:48:34.799Z,5.00
2023-01-10T02:51:14.897Z,5.13
2023-01-10T02:53:53.153Z,5.15
2023-01-10T02:56:29.970Z,5.01
2023-01-10T02:59:17.261Z,5.06
2023-01-10T03:02:21.967Z,4.91
2023-01-10T03:05:09.575Z,5.03
2023-01-10T03:07:46.477Z,5.06
2023-01-10T03:10:21.151Z,5.14
2023-01-10T03:12:57.020Z,5.27
2023-01-10T03:15:30.070Z,5.24
2023-01-10T03:18:03.211Z,5.13
2023-01-10T03:20:35.826Z,5.19
2023-01-10T03:23:06.608Z,5.20
2023-01-10T03:25:39.223Z,5.22
2023-01-10T03:28:42.380Z,5.28
2023-01-10T03:31:29.077Z,5.11
2023-01-10T03:33:57.069Z,5.20
2023-01-10T03:36:31.461Z,5.33
2023-01-10T03:39:40.784Z,5.25
2023-01-10T03:43:07.088Z,5.31
2023-01-10T03:45:49.532Z,5.33
2023-01-10T03:48:21.134Z,5.22
2023-01-10T03:50:54.039Z,5.19
2023-01-10T03:53:24.346Z,5.24
2023-01-10T03:55:52.175Z,5.30
2023-01-10T03:58:21.917Z,5.25
2023-01-10T04:00:50.340Z,5.13
2023-01-10T04:03:18.814Z,5.24
2023-01-10T04:05:50.823Z,5.35
2023-01-10T04:08:18.658Z,5.19
2023-01-10T04:10:50.081Z,5.26
2023-01-10T04:13:19.113Z,5.32
2023-01-10T04:15:46.923Z,5.18
2023-01-10T04:18:15.885Z,5.36
2023-01-10T04:20:44.125Z,5.31
2023-01-10T04:23:11.964Z,5.27
2023-01-10T04:25:39.764Z,5.12
2023-01-10T04:28:07.866Z,5.20
2023-01-10T04:30:39.734Z,5.19
2023-01-10T04:33:07.833Z,5.29
2023-01-10T04:35:35.908Z,5.12
2023-01-10T04:38:03.877Z,5.15
2023-01-10T04:40:31.802Z,5.33
2023-01-10T04:42:59.775Z,5.31
2023-01-10T04:45:27.611Z,5.20
2023-01-10T04:47:57.124Z,5.14
2023-01-10T04:50:25.049Z,5.32
2023-01-10T04:52:57.139Z,5.24
2023-01-10T04:55:25.086Z,5.12
2023-01-10T04:57:54.935Z,5.14
2023-01-10T05:00:22.901Z,5.14
2023-01-10T05:02:58.942Z,5.11
2023-01-10T05:05:32.214Z,5.17
2023-01-10T05:08:00.084Z,5.20
2023-01-10T05:10:28.105Z,5.23
2023-01-10T05:13:01.222Z,5.33
2023-01-10T05:15:29.050Z,5.37
2023-01-10T05:18:01.067Z,5.26
2023-01-10T05:20:28.955Z,5.34
2023-01-10T05:22:56.792Z,5.23
2023-01-10T05:25:28.068Z,5.24
2023-01-10T05:27:55.944Z,5.20
2023-01-10T05:30:27.084Z,5.27
2023-01-10T05:32:54.912Z,5.22
2023-01-10T05:35:26.836Z,5.22
2023-01-10T05:37:55.004Z,5.10
2023-01-10T05:40:23.015Z,5.14
2023-01-10T05:42:54.096Z,5.19
2023-01-10T05:45:23.784Z,5.27
2023-01-10T05:47:52.169Z,5.17
2023-01-10T05:50:20.092Z,5.24
2023-01-10T05:52:48.132Z,5.29
2023-01-10T05:55:16.821Z,5.34
2023-01-10T05:57:44.654Z,5.23
2023-01-10T06:00:14.068Z,5.29
2023-01-10T06:02:42.147Z,5.38
2023-01-10T06:05:10.058Z,5.29
2023-01-10T06:07:40.074Z,5.33
2023-01-10T06:10:08.260Z,5.30
2023-01-10T06:12:36.080Z,5.21
2023-01-10T06:15:05.127Z,5.34
2023-01-10T06:17:34.840Z,5.28
2023-01-10T06:20:02.666Z,5.41
2023-01-10T06:22:32.077Z,5.25
2023-01-10T06:25:02.479Z,5.28
2023-01-10T06:30:22.727Z,5.28
2023-01-10T06:32:50.805Z,5.25
2023-01-10T06:35:18.652Z,5.32
2023-01-10T06:37:47.247Z,5.25
2023-01-10T06:40:15.421Z,5.33
2023-01-10T06:42:43.255Z,5.27
2023-01-10T06:45:13.256Z,5.12
2023-01-10T06:47:41.196Z,5.24
2023-01-10T06:50:10.607Z,5.26
2023-01-10T06:52:39.148Z,5.29
2023-01-10T06:55:07.498Z,5.32
2023-01-10T06:57:38.595Z,5.33
2023-01-10T07:00:09.818Z,5.29
2023-01-10T07:02:41.113Z,5.23
2023-01-10T07:05:11.404Z,5.26
2023-01-10T07:07:40.250Z,5.37
2023-01-10T07:10:09.500Z,5.38
2023-01-10T07:12:38.133Z,5.26
2023-01-10T07:15:07.457Z,5.28
2023-01-10T07:17:35.285Z,5.40
2023-01-10T07:20:04.087Z,5.37
2023-01-10T07:22:32.876Z,5.25
2023-01-10T07:25:04.292Z,5.36
2023-01-10T07:27:32.422Z,5.41
2023-01-10T07:30:00.326Z,5.40
2023-01-10T07:35:21.127Z,5.49
2023-01-10T07:37:49.200Z,5.42
2023-01-10T07:40:17.406Z,5.42
2023-01-10T07:42:47.103Z,5.54
2023-01-10T07:45:14.913Z,5.44
2023-01-10T07:47:42.753Z,5.50
2023-01-10T07:50:10.943Z,5.55
2023-01-10T07:52:42.785Z,5.64
2023-01-10T07:55:10.834Z,5.59
2023-01-10T07:57:38.803Z,5.55
2023-01-10T08:00:07.321Z,5.51
2023-01-10T08:02:37.228Z,5.53
2023-01-10T08:05:05.454Z,5.63
2023-01-10T08:07:36.878Z,5.63
2023-01-10T08:10:07.219Z,5.66
2023-01-10T08:12:35.394Z,5.71
2023-01-10T08:15:05.092Z,5.64
2023-01-10T08:17:38.791Z,5.60
2023-01-10T08:20:11.108Z,5.66
2023-01-10T08:22:39.018Z,5.59
2023-01-10T08:25:07.037Z,5.78
2023-01-10T08:27:36.119Z,5.91
2023-01-10T08:30:05.830Z,5.89
2023-01-10T08:32:34.159Z,5.67
2023-01-10T08:35:01.963Z,5.73
2023-01-10T08:37:31.935Z,5.70
2023-01-10T08:39:59.748Z,5.57
2023-01-10T08:42:27.572Z,5.69
2023-01-10T08:44:59.683Z,5.67
2023-01-10T08:47:28.901Z,5.50
2023-01-10T08:49:56.801Z,5.61
2023-01-10T08:52:26.157Z,5.79
2023-01-10T08:54:54.281Z,5.90
2023-01-10T08:57:22.162Z,5.90
2023-01-10T08:59:51.000Z,5.96
2023-01-10T09:02:19.008Z,6.06
2023-01-10T09:04:46.919Z,5.85
2023-01-10T09:07:15.865Z,6.03
2023-01-10T09:09:44.420Z,6.24
2023-01-10T09:12:32.001Z,6.20
2023-01-10T09:14:59.943Z,6.22
2023-01-10T09:17:27.732Z,6.38
2023-01-10T09:19:57.166Z,6.20
2023-01-10T09:22:25.043Z,6.30
2023-01-10T09:24:56.152Z,6.12
2023-01-10T09:27:24.848Z,6.28
2023-01-10T09:29:53.169Z,6.23
2023-01-10T09:32:21.039Z,6.35
2023-01-10T09:34:50.088Z,6.35
2023-01-10T09:37:18.768Z,6.45
2023-01-10T09:39:47.273Z,6.36
2023-01-10T09:42:33.795Z,6.44
2023-01-10T09:45:14.132Z,6.29
2023-01-10T09:47:45.518Z,6.37
2023-01-10T09:50:41.182Z,6.35
2023-01-10T09:53:16.917Z,6.36
2023-01-10T09:56:14.166Z,6.29
2023-01-10T09:58:44.252Z,6.27
2023-01-10T10:01:21.164Z,6.47
2023-01-10T10:04:30.996Z,6.10
2023-01-10T10:06:59.048Z,6.40
2023-01-10T10:09:30.558Z,6.11
2023-01-10T10:12:18.257Z,6.30
2023-01-10T10:15:07.723Z,6.31
2023-01-10T10:17:42.160Z,6.38
2023-01-10T10:20:43.434Z,6.28
2023-01-10T10:23:34.541Z,6.21
2023-01-10T10:26:14.633Z,6.31
2023-01-10T10:28:54.679Z,6.15
2023-01-10T10:31:35.240Z,5.94
2023-01-10T10:37:33.979Z,6.14
2023-01-10T10:40:06.191Z,6.04
2023-01-10T10:46:23.136Z,6.17
2023-01-10T10:48:58.569Z,5.99
2023-01-10T10:54:52.131Z,6.01
2023-01-10T10:57:25.552Z,5.97
2023-01-10T11:00:19.275Z,6.07
2023-01-10T11:02:53.344Z,6.07
2023-01-10T11:05:32.153Z,6.22
2023-01-10T11:08:13.393Z,6.16
2023-01-10T11:11:04.264Z,6.18
2023-01-10T11:13:35.213Z,6.21
2023-01-10T11:16:06.106Z,6.25
2023-01-10T11:18:34.548Z,6.12
2023-01-10T11:21:14.167Z,6.08
2023-01-10T11:23:53.675Z,6.14
2023-01-10T11:26:25.128Z,6.21
2023-01-10T11:29:14.133Z,6.31
2023-01-10T11:31:46.886Z,6.17
2023-01-10T11:34:23.288Z,6.23
2023-01-10T11:36:58.120Z,6.27
2023-01-10T11:39:27.864Z,6.40
2023-01-10T11:41:59.157Z,6.29
2023-01-10T11:44:29.236Z,6.41
2023-01-10T11:47:08.164Z,6.28
2023-01-10T11:49:41.401Z,6.33
2023-01-10T11:52:28.112Z,6.23
2023-01-10T11:55:00.442Z,6.31
2023-01-10T11:57:33.126Z,6.25
2023-01-10T12:00:09.969Z,6.36
2023-01-10T12:02:44.694Z,6.43
2023-01-10T12:05:21.591Z,6.28
2023-01-10T12:11:02.125Z,6.31
2023-01-10T12:13:52.421Z,6.30
2023-01-10T12:16:33.214Z,6.36
2023-01-10T12:19:05.242Z,6.17
2023-01-10T12:21:40.166Z,6.22
2023-01-10T12:24:34.539Z,6.50
2023-01-10T12:27:04.139Z,6.52
2023-01-10T12:29:37.449Z,6.56
2023-01-10T12:32:17.788Z,6.60
2023-01-10T12:34:52.543Z,6.75
2023-01-10T12:37:36.132Z,6.57
2023-01-10T12:40:17.516Z,6.62
2023-01-10T12:43:17.251Z,6.63
2023-01-10T12:46:09.723Z,6.72
2023-01-10T12:48:50.177Z,6.64
2023-01-10T12:51:23.113Z,6.76
2023-01-10T12:54:04.347Z,6.70
2023-01-10T12:56:32.429Z,6.66
2023-01-10T12:59:12.564Z,6.64
2023-01-10T13:01:43.358Z,6.61
2023-01-10T13:04:21.151Z,6.64
2023-01-10T13:06:50.458Z,6.69
2023-01-10T13:09:28.124Z,6.61
2023-01-10T13:12:31.916Z,6.67
2023-01-10T13:15:28.188Z,6.68
2023-01-10T13:18:16.708Z,6.64
2023-01-10T13:20:46.199Z,6.50
2023-01-10T13:23:33.456Z,6.55
2023-01-10T13:26:12.338Z,6.56
2023-01-10T13:28:55.848Z,6.45
2023-01-10T13:31:34.212Z,6.36
2023-01-10T13:34:12.804Z,6.42
2023-01-10T13:36:51.493Z,6.44
2023-01-10T13:39:40.309Z,6.41
2023-01-10T13:42:27.519Z,6.33
2023-01-10T13:45:01.637Z,6.33
2023-01-10T13:47:43.520Z,6.22
2023-01-10T13:50:25.474Z,6.15
2023-01-10T13:53:18.187Z,6.04
2023-01-10T13:55:54.940Z,6.10
2023-01-10T13:58:42.887Z,6.37
2023-01-10T14:01:49.090Z,6.29
2023-01-10T14:04:24.199Z,6.18
2023-01-10T14:07:04.260Z,6.06
2023-01-10T14:09:38.127Z,6.19
2023-01-10T14:12:23.898Z,6.21
2023-01-10T14:15:02.226Z,6.10
2023-01-10T14:17:33.459Z,6.11
2023-01-10T14:20:12.019Z,6.14
2023-01-10T14:22:48.250Z,6.20
2023-01-10T14:28:33.555Z,6.10
2023-01-10T14:31:04.661Z,6.14
2023-01-10T14:33:36.331Z,6.05
2023-01-10T14:36:10.131Z,5.95
2023-01-10T14:38:41.203Z,5.87
2023-01-10T14:41:12.935Z,5.62
2023-01-10T14:43:55.232Z,5.67
2023-01-10T14:46:34.663Z,5.68
2023-01-10T14:49:24.239Z,5.57
2023-01-10T14:52:00.860Z,5.56
2023-01-10T14:54:31.179Z,5.77
2023-01-10T14:56:58.996Z,5.62
2023-01-10T14:59:27.716Z,5.67
2023-01-10T15:02:03.351Z,5.60
2023-01-10T15:04:36.278Z,5.47
2023-01-10T15:07:17.150Z,5.62
2023-01-10T15:09:51.112Z,5.53
2023-01-10T15:12:29.319Z,5.48
2023-01-10T15:15:22.141Z,5.59
2023-01-10T15:17:53.238Z,5.53
2023-01-10T15:20:23.283Z,5.54
2023-01-10T15:23:02.407Z,5.44
2023-01-10T15:25:32.374Z,5.51
2023-01-10T15:28:02.955Z,5.34
2023-01-10T15:30:37.015Z,5.39
2023-01-10T15:33:14.226Z,5.40
2023-01-10T15:35:45.793Z,5.35
2023-01-10T15:38:18.183Z,5.36
2023-01-10T15:40:58.897Z,5.36
2023-01-10T15:43:32.290Z,5.42
2023-01-10T15:46:05.958Z,5.31
2023-01-10T15:48:37.213Z,5.34
2023-01-10T15:51:14.073Z,5.49
2023-01-10T15:53:56.164Z,5.48
2023-01-10T15:56:50.002Z,5.48
2023-01-10T15:59:29.281Z,5.42
2023-01-10T16:02:16.086Z,5.43
2023-01-10T16:04:46.209Z,5.33
2023-01-10T16:07:31.014Z,5.29
2023-01-10T16:10:06.220Z,5.49
2023-01-10T16:12:56.413Z,5.39
2023-01-10T16:15:33.203Z,5.34
2023-01-10T16:18:02.628Z,5.47
2023-01-10T16:20:43.275Z,5.32
2023-01-10T16:23:19.426Z,5.19
2023-01-10T16:25:51.811Z,5.23
2023-01-10T16:28:21.417Z,5.27
2023-01-10T16:30:53.301Z,5.28
2023-01-10T16:33:24.410Z,5.36
2023-01-10T16:35:57.475Z,5.37
2023-01-10T16:38:28.175Z,5.33
2023-01-10T16:47:07.219Z,5.18
2023-01-10T16:49:35.894Z,5.33
2023-01-10T16:54:55.433Z,5.32
2023-01-10T16:57:24.685Z,5.36
2023-01-10T16:59:52.589Z,5.32
2023-01-10T17:02:22.216Z,5.33
2023-01-10T17:04:50.025Z,5.35
2023-01-10T17:07:18.011Z,5.26
2023-01-10T17:09:46.896Z,5.41
2023-01-10T17:15:38.286Z,5.20
2023-01-10T17:18:06.170Z,5.18
2023-01-10T17:20:34.115Z,5.24
2023-01-10T17:23:02.103Z,5.33
2023-01-10T17:25:29.924Z,5.37
2023-01-10T17:27:58.559Z,5.33
2023-01-10T17:30:26.519Z,5.29
2023-01-10T17:32:55.860Z,5.23
2023-01-10T17:35:48.361Z,5.22
2023-01-10T17:38:17.377Z,5.08
2023-01-10T17:40:47.384Z,5.12
2023-01-10T17:43:17.207Z,5.08
2023-01-10T17:45:48.040Z,5.01
2023-01-10T17:48:19.322Z,5.07
2023-01-10T17:50:54.563Z,5.05
2023-01-10T17:53:23.439Z,4.96
2023-01-10T17:55:52.426Z,4.97
2023-01-10T17:58:21.401Z,4.99
2023-01-10T18:00:51.471Z,5.01
2023-01-10T18:03:23.326Z,4.91
2023-01-10T18:05:56.870Z,4.98
2023-01-10T18:08:25.739Z,5.10
2023-01-10T18:11:01.367Z,4.91
2023-01-10T18:13:32.136Z,5.09
2023-01-10T18:16:02.957Z,4.89
2023-01-10T18:18:31.359Z,4.89
2023-01-10T18:21:02.067Z,4.78
2023-01-10T18:23:32.180Z,4.96
2023-01-10T18:26:09.386Z,4.87
2023-01-10T18:28:45.174Z,4.83
2023-01-10T18:31:18.147Z,4.82
2023-01-10T18:33:49.173Z,4.75
2023-01-10T18:36:19.833Z,4.68
2023-01-10T18:41:40.221Z,4.79
2023-01-10T18:44:08.861Z,4.91
2023-01-10T18:46:37.221Z,4.99
2023-01-10T18:49:30.611Z,4.87
2023-01-10T18:52:02.347Z,4.81
2023-01-10T18:54:31.757Z,4.80
2023-01-10T18:57:25.514Z,4.85
2023-01-10T18:59:53.384Z,4.93
2023-01-10T19:02:21.374Z,4.84
2023-01-10T19:04:49.328Z,4.91
2023-01-10T19:07:17.213Z,4.89
2023-01-10T19:09:45.205Z,4.82
2023-01-10T19:12:13.864Z,4.80
2023-01-10T19:14:43.190Z,4.81
2023-01-10T19:17:11.095Z,4.76
2023-01-10T19:19:39.047Z,4.83
2023-01-10T19:22:06.919Z,4.80
2023-01-10T19:24:38.206Z,4.88
2023-01-10T19:27:06.030Z,4.78
2023-01-10T19:29:35.285Z,4.76
2023-01-10T19:32:04.182Z,4.78
2023-01-10T19:34:32.188Z,4.58
2023-01-10T19:37:01.313Z,4.66
2023-01-10T19:39:30.181Z,4.63
2023-01-10T19:41:58.012Z,4.68
2023-01-10T19:44:53.233Z,4.65
2023-01-10T19:47:21.241Z,4.71
2023-01-10T19:49:49.104Z,4.52
2023-01-10T19:52:20.193Z,4.57
2023-01-10T19:54:48.494Z,4.54
2023-01-10T19:57:41.838Z,4.43
2023-01-10T20:00:10.396Z,4.38
2023-01-10T20:05:35.511Z,4.29
2023-01-10T20:08:04.960Z,4.26
2023-01-10T20:10:32.774Z,4.28
2023-01-10T20:13:02.200Z,4.40
2023-01-10T20:15:30.010Z,4.34
2023-01-10T20:20:51.608Z,4.30
2023-01-10T20:23:22.466Z,4.27
2023-01-10T20:26:03.335Z,4.31
2023-01-10T20:28:31.646Z,4.20
2023-01-10T20:31:00.871Z,4.23
2023-01-10T20:33:28.956Z,4.15
2023-01-10T20:36:00.701Z,4.24
2023-01-10T20:38:30.211Z,4.07
2023-01-10T20:41:10.129Z,4.22
2023-01-10T20:43:40.219Z,4.13
2023-01-10T20:46:14.662Z,4.23
2023-01-10T20:48:44.289Z,4.05
2023-01-10T20:51:17.208Z,4.05
2023-01-10T20:53:49.365Z,4.02
2023-01-10T20:56:21.525Z,4.04
2023-01-10T20:58:50.638Z,3.83
2023-01-10T21:01:33.216Z,3.79
2023-01-10T21:04:04.201Z,3.84
2023-01-10T21:06:34.430Z,3.67
2023-01-10T21:09:02.912Z,3.68
2023-01-10T21:11:31.795Z,3.57
2023-01-10T21:14:02.112Z,3.42
2023-01-10T21:16:29.976Z,3.51
2023-01-10T21:19:01.369Z,3.42
2023-01-10T21:21:29.955Z,3.36
2023-01-10T21:23:57.782Z,3.26
2023-01-10T21:26:26.527Z,3.19
2023-01-10T21:28:55.907Z,3.11
2023-01-10T21:31:23.777Z,3.03
2023-01-10T21:33:52.251Z,3.06
2023-01-10T21:36:20.952Z,2.91
2023-01-10T21:38:50.175Z,2.88
2023-01-10T21:41:38.641Z,2.76
2023-01-10T21:44:08.238Z,2.73
2023-01-10T21:46:37.134Z,2.88
2023-01-10T21:49:05.417Z,2.78
2023-01-10T21:51:33.324Z,2.50
2023-01-10T21:54:01.257Z,2.45
2023-01-10T21:56:29.113Z,2.52
2023-01-10T21:58:58.367Z,2.66
2023-01-10T22:01:26.282Z,2.50
2023-01-10T22:03:55.362Z,2.68
2023-01-10T22:06:23.373Z,2.44
2023-01-10T22:08:52.896Z,2.51
2023-01-10T22:11:20.994Z,2.63
2023-01-10T22:13:54.231Z,2.40
2023-01-10T22:16:23.926Z,2.34
2023-01-10T22:18:52.429Z,2.12
2023-01-10T22:21:20.497Z,2.26
2023-01-10T22:23:48.972Z,2.18
2023-01-10T22:26:18.311Z,2.22
2023-01-10T22:29:11.738Z,2.18
2023-01-10T22:31:42.263Z,2.28
2023-01-10T22:34:10.958Z,2.09
2023-01-10T22:36:39.187Z,2.06
2023-01-10T22:39:08.189Z,2.01
2023-01-10T22:41:38.223Z,2.06
2023-01-10T22:44:31.512Z,1.92
2023-01-10T22:46:59.387Z,1.97
2023-01-10T22:49:27.285Z,1.86
2023-01-10T22:51:55.431Z,1.94
2023-01-10T22:54:23.295Z,1.78
2023-01-10T22:56:51.907Z,1.78
2023-01-10T22:59:23.442Z,1.77
2023-01-10T23:01:51.270Z,1.73
2023-01-10T23:04:44.573Z,1.76
2023-01-10T23:07:13.051Z,1.65
2023-01-10T23:09:41.280Z,1.69
2023-01-10T23:12:09.972Z,1.64
2023-01-10T23:14:37.966Z,1.44
2023-01-10T23:17:07.285Z,1.40
2023-01-10T23:19:35.108Z,1.42
2023-01-10T23:22:04.223Z,1.33
2023-01-10T23:24:32.127Z,1.44
2023-01-10T23:27:02.043Z,1.35
2023-01-10T23:29:29.916Z,1.37
2023-01-10T23:32:02.298Z,1.53
2023-01-10T23:34:31.907Z,1.33
2023-01-10T23:37:03.469Z,1.36
2023-01-10T23:39:31.373Z,1.36
2023-01-10T23:41:59.961Z,1.35
2023-01-10T23:44:31.583Z,1.33
2023-01-10T23:46:59.898Z,1.31
2023-01-10T23:49:27.711Z,1.33
2023-01-10T23:51:55.541Z,1.25
2023-01-10T23:54:23.885Z,1.33
